4XHSF LLRS-LLBG
Flight info
| Callsign | 4XHSF |
|---|---|
| Flight time | N/A |
| Altitude | 1000 |
| Route | NTAIM SUPER TYONA CLORE RIDNG ROKCH PARDS GNYAM |
| Aircraft | DR40/L-S/L |
Departure
| Time | 2026-04-26 17:50 |
|---|---|
| Airport | Rishon Lezion Airfield (LLRS) |
Arrival
| Time | N/A |
|---|---|
| Airport | Ben Gurion International Airport (LLBG) |
| Time | Latitude | Longitude | Altitude | Speed | Heading |
|---|---|---|---|---|---|
| 2026-04-26 17:50 | 32.30543 | 34.91293 | 1457 ft | 110 kts | 89° |
| 2026-04-26 17:50 | 32.30425 | 34.92170 | 1466 ft | 109 kts | 127° |
| 2026-04-26 17:50 | 32.29758 | 34.92396 | 1416 ft | 107 kts | 207° |
| 2026-04-26 17:50 | 32.29692 | 34.91764 | 1573 ft | 91 kts | 334° |
| 2026-04-26 17:51 | 32.30357 | 34.91895 | 1513 ft | 110 kts | 9° |
| 2026-04-26 17:51 | 32.31133 | 34.92049 | 1428 ft | 115 kts | 5° |
| 2026-04-26 17:51 | 32.31939 | 34.92191 | 1343 ft | 121 kts | 14° |
| 2026-04-26 17:51 | 32.32726 | 34.92529 | 1292 ft | 120 kts | 20° |
| 2026-04-26 17:52 | 32.33430 | 34.92903 | 1440 ft | 106 kts | 19° |
| 2026-04-26 17:52 | 32.34164 | 34.93204 | 1307 ft | 120 kts | 15° |
| 2026-04-26 17:52 | 32.34918 | 34.93482 | 1198 ft | 120 kts | 14° |
| 2026-04-26 17:52 | 32.35688 | 34.93807 | 1236 ft | 117 kts | 14° |
| 2026-04-26 17:53 | 32.36484 | 34.94077 | 1202 ft | 116 kts | 7° |
| 2026-04-26 17:53 | 32.37132 | 34.93705 | 1234 ft | 110 kts | 316° |
| 2026-04-26 17:53 | 32.37774 | 34.93208 | 1245 ft | 113 kts | 336° |
| 2026-04-26 17:54 | 32.39246 | 34.93504 | 1343 ft | 111 kts | 354° |
| 2026-04-26 17:54 | 32.40024 | 34.93571 | 1334 ft | 114 kts | 8° |
| 2026-04-26 17:54 | 32.40720 | 34.93508 | 1437 ft | 97 kts | 303° |
| 2026-04-26 17:54 | 32.40514 | 34.92823 | 1328 ft | 112 kts | 202° |
| 2026-04-26 17:55 | 32.39711 | 34.93006 | 1256 ft | 121 kts | 164° |
| 2026-04-26 17:55 | 32.38946 | 34.93342 | 1296 ft | 117 kts | 149° |
| 2026-04-26 17:55 | 32.38477 | 34.94128 | 1328 ft | 119 kts | 112° |
| 2026-04-26 17:55 | 32.38267 | 34.95102 | 1254 ft | 125 kts | 105° |
| 2026-04-26 17:56 | 32.37872 | 34.96008 | 1128 ft | 128 kts | 150° |
| 2026-04-26 17:56 | 32.36139 | 34.96480 | 899 ft | 124 kts | 180° |
| 2026-04-26 17:57 | 32.34627 | 34.95865 | 911 ft | 111 kts | 222° |
| 2026-04-26 17:57 | 32.34009 | 34.95281 | 838 ft | 117 kts | 210° |
| 2026-04-26 17:57 | 32.33176 | 34.95285 | 684 ft | 130 kts | 167° |
| 2026-04-26 17:57 | 32.32286 | 34.95457 | 619 ft | 124 kts | 183° |
| 2026-04-26 17:58 | 32.30573 | 34.94243 | 785 ft | 99 kts | 272° |
| 2026-04-26 17:59 | 32.31679 | 34.93149 | 492 ft | 119 kts | 338° |
| 2026-04-26 17:59 | 32.32323 | 34.93357 | 611 ft | 110 kts | 72° |
| 2026-04-26 17:59 | 32.32574 | 34.94235 | 553 ft | 113 kts | 62° |
| 2026-04-26 17:59 | 32.32904 | 34.95088 | 565 ft | 109 kts | 40° |
| 2026-04-26 18:00 | 32.33568 | 34.95332 | 641 ft | 104 kts | 11° |
| 2026-04-26 18:00 | 32.34309 | 34.95522 | 555 ft | 116 kts | 10° |
| 2026-04-26 18:00 | 32.35123 | 34.95727 | 452 ft | 122 kts | 10° |
| 2026-04-26 18:00 | 32.35954 | 34.95926 | 418 ft | 120 kts | 13° |
| 2026-04-26 18:01 | 32.36548 | 34.96431 | 634 ft | 100 kts | 89° |
| 2026-04-26 18:01 | 32.36035 | 34.96810 | 693 ft | 102 kts | 178° |
| 2026-04-26 18:01 | 32.35301 | 34.96851 | 704 ft | 107 kts | 167° |
| 2026-04-26 18:01 | 32.34527 | 34.96970 | 626 ft | 116 kts | 182° |
| 2026-04-26 18:02 | 32.33728 | 34.97009 | 568 ft | 118 kts | 189° |
| 2026-04-26 18:02 | 32.33190 | 34.96908 | 544 ft | 119 kts | 190° |
| 2026-04-26 18:02 | 32.33451 | 34.96205 | 586 ft | 103 kts | 342° |
| 2026-04-26 18:02 | 32.34225 | 34.96138 | 490 ft | 116 kts | 359° |
| 2026-04-26 18:03 | 32.34927 | 34.95916 | 547 ft | 104 kts | 319° |
| 2026-04-26 18:03 | 32.35473 | 34.95402 | 678 ft | 94 kts | 325° |
| 2026-04-26 18:03 | 32.36068 | 34.95038 | 696 ft | 101 kts | 336° |
| 2026-04-26 18:03 | 32.36757 | 34.94770 | 687 ft | 106 kts | 345° |
| 2026-04-26 18:04 | 32.37513 | 34.94587 | 667 ft | 112 kts | 350° |
| 2026-04-26 18:04 | 32.38302 | 34.94517 | 634 ft | 115 kts | 356° |
| 2026-04-26 18:04 | 32.39096 | 34.94513 | 657 ft | 114 kts | 359° |
| 2026-04-26 18:05 | 32.40712 | 34.94574 | 587 ft | 119 kts | 358° |
| 2026-04-26 18:05 | 32.40991 | 34.94151 | 729 ft | 93 kts | 252° |
| 2026-04-26 18:05 | 32.40662 | 34.93324 | 528 ft | 117 kts | 243° |
| 2026-04-26 18:05 | 32.40172 | 34.92627 | 618 ft | 110 kts | 221° |
| 2026-04-26 18:06 | 32.39560 | 34.92066 | 636 ft | 111 kts | 217° |
| 2026-04-26 18:06 | 32.38899 | 34.91549 | 575 ft | 116 kts | 210° |
| 2026-04-26 18:06 | 32.38166 | 34.91134 | 536 ft | 117 kts | 210° |
| 2026-04-26 18:06 | 32.37838 | 34.90503 | 748 ft | 96 kts | 262° |
| 2026-04-26 18:07 | 32.37728 | 34.89679 | 771 ft | 89 kts | 242° |
| 2026-04-26 18:07 | 32.37174 | 34.89538 | 856 ft | 98 kts | 184° |
| 2026-04-26 18:07 | 32.36451 | 34.89527 | 810 ft | 110 kts | 186° |
| 2026-04-26 18:07 | 32.35935 | 34.89455 | 750 ft | 114 kts | 189° |
| 2026-04-26 18:08 | 32.34804 | 34.89337 | 525 ft | 126 kts | 186° |
| 2026-04-26 18:08 | 32.33993 | 34.89231 | 641 ft | 111 kts | 193° |
| 2026-04-26 18:08 | 32.33220 | 34.89097 | 631 ft | 113 kts | 191° |
| 2026-04-26 18:08 | 32.32413 | 34.88986 | 497 ft | 121 kts | 188° |
| 2026-04-26 18:09 | 32.31586 | 34.88873 | 485 ft | 117 kts | 188° |